createdAt,value
2023-02-13T00:00:51.434Z,68.21
2023-02-13T00:03:19.306Z,68.24
2023-02-13T00:05:47.021Z,68.55
2023-02-13T00:08:14.486Z,68.48
2023-02-13T00:10:42.286Z,68.91
2023-02-13T00:13:10.001Z,68.83
2023-02-13T00:15:37.570Z,68.60
2023-02-13T00:18:05.611Z,68.61
2023-02-13T00:20:33.067Z,68.78
2023-02-13T00:23:00.685Z,69.30
2023-02-13T00:25:29.032Z,69.96
2023-02-13T00:27:56.904Z,69.99
2023-02-13T00:30:24.432Z,70.43
2023-02-13T00:32:52.236Z,71.45
2023-02-13T00:35:19.756Z,72.21
2023-02-13T00:37:47.291Z,72.67
2023-02-13T00:40:15.361Z,72.94
2023-02-13T00:42:42.925Z,73.51
2023-02-13T00:45:10.419Z,74.66
2023-02-13T00:47:38.396Z,75.02
2023-02-13T00:50:06.334Z,75.78
2023-02-13T00:52:33.910Z,75.64
2023-02-13T00:55:01.702Z,75.56
2023-02-13T00:57:31.219Z,75.11
2023-02-13T00:59:59.171Z,74.84
2023-02-13T01:02:27.174Z,74.37
2023-02-13T01:04:55.081Z,74.13
2023-02-13T01:07:22.658Z,73.95
2023-02-13T01:09:50.465Z,73.29
2023-02-13T01:12:18.011Z,73.36
2023-02-13T01:14:45.691Z,72.98
2023-02-13T01:17:13.562Z,73.20
2023-02-13T01:19:41.481Z,73.12
2023-02-13T01:22:09.529Z,73.46
2023-02-13T01:24:37.357Z,72.80
2023-02-13T01:27:04.926Z,72.55
2023-02-13T01:29:32.512Z,72.95
2023-02-13T01:32:05.190Z,74.38
2023-02-13T01:34:33.999Z,75.01
2023-02-13T01:37:01.795Z,74.73
2023-02-13T01:39:29.297Z,74.47
2023-02-13T01:41:57.020Z,73.96
2023-02-13T01:44:48.381Z,73.79
2023-02-13T01:47:41.749Z,75.60
2023-02-13T01:50:16.895Z,75.01
2023-02-13T01:53:04.566Z,75.32
2023-02-13T01:55:35.259Z,75.29
2023-02-13T01:58:14.220Z,75.34
2023-02-13T02:00:43.835Z,74.70
2023-02-13T02:03:16.913Z,74.64
2023-02-13T02:05:45.008Z,74.42
2023-02-13T02:08:15.423Z,74.24
2023-02-13T02:10:43.367Z,74.58
2023-02-13T02:13:18.847Z,76.34
2023-02-13T02:15:48.810Z,75.45
2023-02-13T02:18:19.240Z,75.01
2023-02-13T02:21:08.979Z,74.65
2023-02-13T02:24:01.712Z,76.00
2023-02-13T02:26:46.533Z,75.96
2023-02-13T02:29:49.006Z,76.83
2023-02-13T02:32:25.573Z,76.17
2023-02-13T02:35:02.294Z,75.87
2023-02-13T02:37:45.375Z,76.26
2023-02-13T02:40:27.015Z,76.16
2023-02-13T02:43:15.984Z,75.75
2023-02-13T02:46:23.060Z,75.37
2023-02-13T02:49:33.292Z,75.71
2023-02-13T02:52:18.364Z,75.82
2023-02-13T02:55:06.666Z,76.81
2023-02-13T02:58:04.210Z,76.78
2023-02-13T03:00:55.669Z,77.43
2023-02-13T03:03:44.778Z,76.30
2023-02-13T03:06:47.164Z,77.08
2023-02-13T03:09:42.808Z,76.26
2023-02-13T03:12:32.918Z,76.21
2023-02-13T03:15:00.767Z,76.00
2023-02-13T03:17:46.878Z,75.89
2023-02-13T03:20:59.457Z,76.14
2023-02-13T03:24:00.342Z,75.94
2023-02-13T03:26:33.319Z,75.54
2023-02-13T03:29:45.933Z,75.33
2023-02-13T03:32:31.946Z,76.85
2023-02-13T03:35:39.557Z,76.77
2023-02-13T03:38:28.825Z,76.17
2023-02-13T03:41:19.427Z,76.43
2023-02-13T03:44:09.059Z,77.36
2023-02-13T03:46:42.001Z,76.05
2023-02-13T03:49:36.396Z,75.98
2023-02-13T03:52:09.573Z,75.49
2023-02-13T03:55:07.170Z,76.17
2023-02-13T03:57:57.822Z,76.37
2023-02-13T04:00:33.516Z,77.60
2023-02-13T04:03:11.205Z,77.48
2023-02-13T04:05:47.690Z,77.70
2023-02-13T04:08:15.633Z,76.53
2023-02-13T04:11:18.744Z,76.39
2023-02-13T04:13:52.502Z,77.01
2023-02-13T04:16:28.000Z,78.30
2023-02-13T04:18:57.237Z,77.76
2023-02-13T04:21:24.863Z,76.84
2023-02-13T04:23:52.529Z,76.20
2023-02-13T04:26:22.638Z,76.09
2023-02-13T04:28:50.230Z,76.66
2023-02-13T04:31:17.903Z,77.04
2023-02-13T04:33:45.794Z,76.92
2023-02-13T04:36:13.277Z,76.52
2023-02-13T04:38:40.753Z,76.81
2023-02-13T04:41:08.591Z,76.90
2023-02-13T04:43:36.121Z,75.94
2023-02-13T04:46:03.962Z,75.83
2023-02-13T04:48:31.942Z,76.90
2023-02-13T04:50:59.723Z,76.98
2023-02-13T04:53:27.617Z,77.42
2023-02-13T04:55:55.402Z,78.29
2023-02-13T04:58:22.886Z,78.11
2023-02-13T05:00:50.356Z,77.95
2023-02-13T05:03:18.390Z,78.00
2023-02-13T05:05:45.951Z,77.82
2023-02-13T05:08:13.533Z,78.16
2023-02-13T05:10:41.372Z,78.19
2023-02-13T05:13:09.043Z,77.76
2023-02-13T05:15:36.651Z,78.97
2023-02-13T05:18:04.642Z,78.84
2023-02-13T05:20:32.132Z,78.64
2023-02-13T05:23:29.126Z,78.26
2023-02-13T05:25:56.994Z,78.40
2023-02-13T05:28:43.429Z,77.85
2023-02-13T05:31:11.536Z,78.37
2023-02-13T05:33:39.372Z,78.16
2023-02-13T05:36:07.410Z,78.56
2023-02-13T05:38:35.424Z,79.10
2023-02-13T05:41:03.331Z,79.21
2023-02-13T05:43:30.973Z,80.66
2023-02-13T05:46:09.863Z,79.64
2023-02-13T05:48:37.510Z,78.58
2023-02-13T05:51:05.638Z,81.22
2023-02-13T05:53:37.992Z,80.78
2023-02-13T05:56:06.774Z,80.30
2023-02-13T05:58:35.001Z,80.36
2023-02-13T06:01:03.029Z,79.94
2023-02-13T06:03:32.054Z,80.20
2023-02-13T06:06:00.248Z,80.05
2023-02-13T06:08:27.936Z,79.59
2023-02-13T06:10:55.809Z,79.48
2023-02-13T06:13:24.158Z,79.64
2023-02-13T06:15:51.712Z,79.24
2023-02-13T06:18:19.845Z,79.16
2023-02-13T06:20:47.381Z,79.36
2023-02-13T06:23:15.036Z,79.35
2023-02-13T06:25:42.953Z,80.73
2023-02-13T06:28:10.508Z,80.67
2023-02-13T06:30:38.149Z,80.05
2023-02-13T06:33:06.028Z,79.70
2023-02-13T06:35:33.563Z,80.43
2023-02-13T06:38:01.124Z,80.46
2023-02-13T06:40:28.990Z,81.07
2023-02-13T06:42:56.748Z,81.16
2023-02-13T06:45:24.316Z,80.86
2023-02-13T06:47:52.154Z,80.38
2023-02-13T06:50:19.878Z,80.79
2023-02-13T06:52:48.916Z,81.54
2023-02-13T06:55:17.708Z,81.65
2023-02-13T06:57:45.687Z,81.94
2023-02-13T07:00:16.776Z,82.04
2023-02-13T07:02:46.435Z,82.13
2023-02-13T07:05:14.390Z,82.24
2023-02-13T07:07:42.826Z,80.28
2023-02-13T07:10:13.406Z,79.50
2023-02-13T07:12:40.974Z,80.22
2023-02-13T07:15:09.208Z,81.14
2023-02-13T07:17:37.276Z,80.50
2023-02-13T07:20:06.274Z,79.69
2023-02-13T07:22:33.775Z,79.21
2023-02-13T07:25:01.729Z,78.94
2023-02-13T07:27:29.584Z,77.66
2023-02-13T07:29:57.699Z,76.67
2023-02-13T07:32:26.126Z,75.53
2023-02-13T07:35:01.634Z,74.39
2023-02-13T07:37:31.625Z,73.23
2023-02-13T07:39:59.309Z,72.07
2023-02-13T07:42:26.929Z,70.83
2023-02-13T07:44:54.746Z,69.70
2023-02-13T07:47:22.262Z,68.43
2023-02-13T07:49:49.898Z,67.30
2023-02-13T07:52:17.699Z,66.32
2023-02-13T07:54:48.363Z,65.12
2023-02-13T07:57:17.271Z,63.68
2023-02-13T07:59:45.593Z,62.75
2023-02-13T08:02:14.504Z,61.94
2023-02-13T08:04:49.118Z,61.08
2023-02-13T08:07:18.375Z,59.55
2023-02-13T08:10:05.526Z,58.60
2023-02-13T08:12:36.054Z,57.56
2023-02-13T08:15:04.586Z,55.80
2023-02-13T08:17:32.128Z,54.80
2023-02-13T08:19:59.638Z,53.63
2023-02-13T08:22:27.477Z,52.83
2023-02-13T08:24:55.049Z,51.75
2023-02-13T08:27:23.120Z,50.79
2023-02-13T08:29:51.352Z,50.35
2023-02-13T08:32:19.132Z,49.76
2023-02-13T08:34:46.853Z,48.60
2023-02-13T08:37:14.700Z,48.23
2023-02-13T08:39:42.279Z,48.51
2023-02-13T08:42:10.648Z,47.79
2023-02-13T08:44:41.364Z,47.39
2023-02-13T08:47:09.307Z,47.03
2023-02-13T08:49:36.886Z,47.08
2023-02-13T08:52:05.811Z,47.10
2023-02-13T08:54:35.187Z,46.27
2023-02-13T08:57:02.758Z,45.92
2023-02-13T08:59:30.608Z,45.21
2023-02-13T09:01:58.370Z,45.19
2023-02-13T09:04:25.870Z,45.20
2023-02-13T09:06:53.704Z,45.60
2023-02-13T09:09:21.351Z,45.07
2023-02-13T09:11:50.966Z,45.19
2023-02-13T09:14:18.740Z,45.00
2023-02-13T09:16:46.223Z,45.40
2023-02-13T09:19:13.830Z,45.55
2023-02-13T09:21:41.643Z,45.17
2023-02-13T09:24:10.590Z,44.86
2023-02-13T09:26:38.199Z,44.68
2023-02-13T09:29:06.066Z,44.30
2023-02-13T09:31:33.718Z,44.25
2023-02-13T09:34:01.347Z,44.20
2023-02-13T09:36:29.185Z,44.15
2023-02-13T09:38:57.738Z,43.87
2023-02-13T09:41:28.965Z,43.47
2023-02-13T09:44:33.799Z,43.58
2023-02-13T09:47:10.226Z,43.03
2023-02-13T09:49:44.432Z,43.02
2023-02-13T09:52:12.070Z,43.33
2023-02-13T09:54:40.252Z,43.65
2023-02-13T09:57:18.743Z,43.25
2023-02-13T09:59:57.220Z,43.59
2023-02-13T10:02:47.373Z,44.48
2023-02-13T10:05:34.746Z,43.67
2023-02-13T10:08:18.544Z,43.08
2023-02-13T10:11:01.245Z,43.78
2023-02-13T10:13:42.262Z,43.77
2023-02-13T10:16:17.513Z,43.43
2023-02-13T10:19:03.333Z,44.12
2023-02-13T10:21:36.510Z,43.73
2023-02-13T10:24:18.254Z,43.83
2023-02-13T10:26:47.305Z,43.81
2023-02-13T10:30:04.609Z,43.58
2023-02-13T10:32:52.033Z,43.95
2023-02-13T10:35:24.181Z,44.18
2023-02-13T10:37:56.857Z,43.02
2023-02-13T10:40:32.101Z,42.98
2023-02-13T10:43:10.104Z,43.91
2023-02-13T10:46:03.838Z,44.96
2023-02-13T10:48:37.732Z,45.56
2023-02-13T10:51:24.184Z,46.75
2023-02-13T10:54:19.806Z,46.49
2023-02-13T10:56:56.538Z,46.34
2023-02-13T10:59:47.860Z,45.79
2023-02-13T11:02:23.460Z,46.52
2023-02-13T11:05:19.657Z,46.56
2023-02-13T11:07:50.260Z,45.70
2023-02-13T11:10:23.922Z,45.25
2023-02-13T11:12:52.749Z,44.90
2023-02-13T11:15:23.920Z,45.37
2023-02-13T11:17:53.496Z,45.77
2023-02-13T11:20:44.456Z,46.63
2023-02-13T11:23:32.156Z,46.72
2023-02-13T11:26:17.212Z,46.09
2023-02-13T11:28:55.871Z,45.51
2023-02-13T11:31:30.487Z,45.25
2023-02-13T11:34:00.169Z,44.57
2023-02-13T11:36:27.963Z,43.74
2023-02-13T11:39:05.729Z,43.95
2023-02-13T11:41:40.832Z,42.79
2023-02-13T11:44:20.085Z,43.18
2023-02-13T11:46:53.680Z,43.29
2023-02-13T11:49:25.284Z,42.89
2023-02-13T11:52:01.876Z,42.75
2023-02-13T11:55:05.306Z,43.49
2023-02-13T11:57:37.805Z,44.02
2023-02-13T12:00:41.813Z,44.19
2023-02-13T12:03:22.148Z,44.40
2023-02-13T12:06:06.904Z,45.31
2023-02-13T12:08:39.591Z,45.67
2023-02-13T12:11:25.691Z,46.63
2023-02-13T12:13:53.761Z,47.34
2023-02-13T12:16:45.444Z,47.96
2023-02-13T12:19:17.211Z,47.72
2023-02-13T12:22:09.114Z,48.19
2023-02-13T12:24:36.940Z,48.73
2023-02-13T12:27:07.324Z,49.08
2023-02-13T12:29:53.037Z,49.69
2023-02-13T12:33:08.723Z,50.45
2023-02-13T12:35:56.513Z,51.33
2023-02-13T12:38:38.965Z,51.30
2023-02-13T12:41:25.303Z,51.03
2023-02-13T12:44:08.198Z,51.48
2023-02-13T12:46:44.736Z,51.48
2023-02-13T12:49:40.767Z,52.13
2023-02-13T12:52:27.105Z,52.46
2023-02-13T12:55:17.364Z,53.49
2023-02-13T12:57:54.028Z,53.85
2023-02-13T13:00:48.173Z,54.40
2023-02-13T13:03:48.207Z,54.85
2023-02-13T13:06:49.473Z,55.64
2023-02-13T13:09:38.966Z,55.31
2023-02-13T13:12:15.555Z,55.47
2023-02-13T13:15:31.376Z,55.22
2023-02-13T13:17:59.208Z,55.87
2023-02-13T13:20:26.752Z,55.58
2023-02-13T13:23:04.591Z,54.01
2023-02-13T13:26:02.803Z,53.71
2023-02-13T13:28:36.821Z,54.13
2023-02-13T13:31:06.031Z,54.55
2023-02-13T13:33:35.441Z,53.83
2023-02-13T13:36:40.306Z,53.33
2023-02-13T13:39:31.311Z,53.61
2023-02-13T13:42:20.277Z,55.01
2023-02-13T13:45:21.971Z,55.03
2023-02-13T13:48:35.160Z,54.65
2023-02-13T13:51:03.413Z,55.13
2023-02-13T13:53:31.104Z,54.54
2023-02-13T13:56:10.501Z,55.00
2023-02-13T13:58:45.821Z,58.17
2023-02-13T14:01:25.731Z,54.47
2023-02-13T14:04:04.494Z,56.87
2023-02-13T14:06:47.352Z,55.96
2023-02-13T14:09:27.491Z,53.78
2023-02-13T14:11:56.777Z,53.88
2023-02-13T14:14:27.639Z,54.00
2023-02-13T14:16:58.749Z,54.29
2023-02-13T14:19:29.373Z,54.80
2023-02-13T14:22:24.817Z,55.26
2023-02-13T14:24:59.309Z,55.65
2023-02-13T14:27:37.725Z,56.56
2023-02-13T14:30:24.712Z,56.86
2023-02-13T14:32:52.612Z,56.75
2023-02-13T14:35:35.406Z,56.28
2023-02-13T14:38:08.215Z,56.24
2023-02-13T14:40:50.594Z,56.23
2023-02-13T14:43:20.803Z,56.38
2023-02-13T14:46:13.536Z,56.77
2023-02-13T14:48:49.300Z,57.32
2023-02-13T14:51:28.888Z,58.19
2023-02-13T14:54:06.869Z,58.56
2023-02-13T14:56:37.677Z,58.78
2023-02-13T14:59:14.064Z,58.92
2023-02-13T15:02:22.623Z,58.89
2023-02-13T15:04:54.328Z,58.94
2023-02-13T15:07:27.024Z,58.79
2023-02-13T15:10:23.630Z,58.78
2023-02-13T15:13:02.385Z,59.13
2023-02-13T15:15:34.445Z,59.22
2023-02-13T15:18:12.003Z,58.93
2023-02-13T15:20:43.455Z,59.39
2023-02-13T15:23:26.655Z,59.30
2023-02-13T15:26:03.723Z,59.66
2023-02-13T15:28:33.590Z,59.68
2023-02-13T15:31:05.638Z,59.69
2023-02-13T15:33:48.270Z,59.22
2023-02-13T15:36:20.329Z,59.31
2023-02-13T15:38:48.337Z,59.37
2023-02-13T15:41:22.954Z,59.41
2023-02-13T15:43:56.053Z,61.32
2023-02-13T15:46:38.819Z,64.09
2023-02-13T15:49:10.577Z,62.51
2023-02-13T15:51:38.530Z,60.43
2023-02-13T15:54:21.831Z,58.33
2023-02-13T15:56:51.866Z,57.06
2023-02-13T15:59:21.191Z,53.34
2023-02-13T16:01:51.753Z,51.99
2023-02-13T16:04:21.522Z,50.21
2023-02-13T16:06:52.149Z,48.73
2023-02-13T16:09:27.736Z,48.17
2023-02-13T16:12:00.443Z,47.70
2023-02-13T16:14:31.830Z,47.47
2023-02-13T16:17:08.348Z,47.04
2023-02-13T16:19:56.871Z,44.97
2023-02-13T16:23:13.617Z,46.82
2023-02-13T16:25:41.838Z,49.36
2023-02-13T16:28:24.376Z,50.75
2023-02-13T16:30:55.270Z,51.76
2023-02-13T16:33:28.967Z,52.44
2023-02-13T16:35:59.630Z,52.74
2023-02-13T16:38:42.020Z,53.64
2023-02-13T16:41:30.888Z,54.73
2023-02-13T16:43:59.504Z,55.11
2023-02-13T16:46:39.598Z,55.60
2023-02-13T16:49:07.805Z,58.76
2023-02-13T16:51:51.237Z,56.08
2023-02-13T16:54:27.121Z,56.47
2023-02-13T16:56:58.990Z,56.61
2023-02-13T16:59:48.048Z,56.77
2023-02-13T17:02:19.386Z,57.24
2023-02-13T17:05:09.679Z,57.46
2023-02-13T17:07:43.848Z,57.54
2023-02-13T17:10:23.732Z,57.84
2023-02-13T17:12:51.760Z,57.92
2023-02-13T17:15:22.256Z,58.07
2023-02-13T17:17:53.869Z,58.39
2023-02-13T17:20:25.891Z,58.41
2023-02-13T17:22:55.945Z,58.71
2023-02-13T17:25:32.489Z,58.84
2023-02-13T17:28:24.473Z,59.32
2023-02-13T17:30:54.243Z,60.06
2023-02-13T17:33:25.102Z,60.25
2023-02-13T17:35:53.296Z,60.61
2023-02-13T17:38:21.359Z,60.91
2023-02-13T17:40:49.401Z,61.25
2023-02-13T17:43:19.410Z,61.28
2023-02-13T17:45:47.748Z,61.36
2023-02-13T17:48:15.887Z,61.84
2023-02-13T17:50:43.801Z,62.43
2023-02-13T17:53:26.914Z,62.87
2023-02-13T17:55:54.881Z,63.13
2023-02-13T17:58:22.910Z,63.24
2023-02-13T18:00:50.900Z,63.42
2023-02-13T18:03:18.899Z,63.81
2023-02-13T18:05:50.051Z,63.95
2023-02-13T18:08:17.765Z,64.25
2023-02-13T18:10:45.779Z,64.48
2023-02-13T18:13:13.356Z,64.95
2023-02-13T18:15:43.148Z,65.44
2023-02-13T18:18:12.636Z,65.55
2023-02-13T18:20:40.702Z,66.02
2023-02-13T18:23:08.835Z,66.04
2023-02-13T18:25:36.922Z,65.82
2023-02-13T18:28:04.497Z,66.11
2023-02-13T18:30:32.061Z,66.41
2023-02-13T18:32:59.884Z,66.24
2023-02-13T18:35:27.642Z,66.46
2023-02-13T18:37:55.174Z,66.34
2023-02-13T18:40:23.101Z,66.34
2023-02-13T18:42:52.270Z,66.20
2023-02-13T18:45:19.938Z,65.94
2023-02-13T18:47:47.769Z,66.38
2023-02-13T18:50:15.392Z,66.28
2023-02-13T18:52:42.921Z,67.07
2023-02-13T18:55:10.788Z,66.82
2023-02-13T18:57:43.382Z,66.37
2023-02-13T19:00:14.236Z,66.35
2023-02-13T19:02:41.809Z,66.55
2023-02-13T19:05:09.428Z,66.53
2023-02-13T19:07:37.261Z,66.56
2023-02-13T19:10:05.168Z,66.39
2023-02-13T19:12:32.734Z,66.26
2023-02-13T19:15:00.613Z,66.29
2023-02-13T19:17:28.177Z,66.04
2023-02-13T19:19:55.848Z,65.87
2023-02-13T19:22:23.651Z,65.96
2023-02-13T19:24:51.222Z,66.11
2023-02-13T19:27:18.945Z,65.77
2023-02-13T19:29:47.515Z,66.02
2023-02-13T19:32:15.168Z,65.58
2023-02-13T19:34:42.736Z,65.53
2023-02-13T19:37:10.585Z,65.48
2023-02-13T19:39:38.213Z,65.34
2023-02-13T19:42:05.784Z,65.42
2023-02-13T19:44:33.617Z,65.50
2023-02-13T19:47:01.167Z,65.64
2023-02-13T19:49:28.770Z,65.70
2023-02-13T19:51:56.598Z,65.59
2023-02-13T19:54:24.081Z,65.55
2023-02-13T19:56:51.738Z,65.64
2023-02-13T19:59:19.522Z,65.90
2023-02-13T20:01:47.031Z,66.00
2023-02-13T20:04:14.898Z,66.20
2023-02-13T20:06:42.430Z,66.25
2023-02-13T20:09:12.821Z,66.58
2023-02-13T20:11:41.480Z,66.55
2023-02-13T20:14:14.785Z,66.54
2023-02-13T20:16:45.721Z,66.73
2023-02-13T20:19:14.102Z,66.93
2023-02-13T20:21:42.470Z,67.28
2023-02-13T20:24:11.343Z,67.26
2023-02-13T20:26:40.196Z,67.38
2023-02-13T20:29:08.980Z,67.27
2023-02-13T20:31:37.057Z,67.62
2023-02-13T20:34:06.597Z,67.59
2023-02-13T20:36:34.594Z,67.81
2023-02-13T20:39:05.014Z,67.89
2023-02-13T20:41:34.563Z,68.16
2023-02-13T20:44:08.360Z,68.05
2023-02-13T20:46:37.884Z,68.26
2023-02-13T20:49:06.538Z,68.35
2023-02-13T20:51:35.037Z,68.39
2023-02-13T20:54:03.620Z,68.62
2023-02-13T20:56:31.835Z,68.55
2023-02-13T20:59:00.120Z,68.89
2023-02-13T21:01:33.655Z,68.78
2023-02-13T21:04:01.638Z,69.06
2023-02-13T21:06:31.828Z,69.03
2023-02-13T21:08:59.667Z,69.02
2023-02-13T21:11:28.973Z,69.00
2023-02-13T21:13:57.887Z,69.02
2023-02-13T21:16:28.375Z,68.92
2023-02-13T21:18:59.398Z,69.07
2023-02-13T21:21:30.112Z,68.91
2023-02-13T21:24:01.613Z,68.96
2023-02-13T21:26:30.487Z,68.94
2023-02-13T21:28:59.526Z,68.96
2023-02-13T21:31:35.934Z,69.12
2023-02-13T21:34:10.856Z,69.42
2023-02-13T21:36:40.658Z,69.32
2023-02-13T21:39:11.207Z,69.24
2023-02-13T21:41:44.054Z,69.39
2023-02-13T21:44:14.587Z,69.34
2023-02-13T21:46:43.453Z,69.28
2023-02-13T21:49:17.236Z,69.09
2023-02-13T21:51:45.557Z,68.96
2023-02-13T21:54:13.512Z,68.54
2023-02-13T21:56:42.532Z,68.47
2023-02-13T21:59:15.321Z,68.04
2023-02-13T22:01:50.317Z,68.12
2023-02-13T22:04:18.824Z,68.08
2023-02-13T22:06:51.395Z,67.96
2023-02-13T22:09:20.840Z,67.96
2023-02-13T22:11:51.459Z,67.79
2023-02-13T22:14:20.139Z,68.20
2023-02-13T22:16:50.224Z,68.17
2023-02-13T22:19:17.960Z,68.09
2023-02-13T22:21:46.263Z,68.08
2023-02-13T22:24:13.881Z,68.13
2023-02-13T22:26:43.002Z,68.03
2023-02-13T22:29:13.666Z,67.99
2023-02-13T22:31:41.673Z,67.61
2023-02-13T22:34:12.012Z,67.70
2023-02-13T22:36:40.320Z,67.78
2023-02-13T22:39:09.777Z,67.81
2023-02-13T22:41:37.688Z,67.98
2023-02-13T22:44:05.819Z,68.22
2023-02-13T22:46:34.440Z,68.01
2023-02-13T22:49:02.341Z,68.19
2023-02-13T22:51:36.041Z,67.97
2023-02-13T22:54:04.552Z,68.12
2023-02-13T22:56:32.747Z,68.25
2023-02-13T22:59:02.879Z,68.45
2023-02-13T23:01:30.543Z,68.32
2023-02-13T23:03:58.786Z,68.27
2023-02-13T23:06:27.054Z,67.96
2023-02-13T23:08:55.283Z,68.28
2023-02-13T23:11:44.665Z,68.20
2023-02-13T23:14:12.981Z,68.01
2023-02-13T23:17:01.108Z,68.16
2023-02-13T23:19:30.147Z,67.96
2023-02-13T23:21:58.892Z,68.09
2023-02-13T23:24:26.624Z,68.15
2023-02-13T23:26:54.312Z,68.18
2023-02-13T23:29:22.477Z,68.18
2023-02-13T23:31:50.100Z,68.19
2023-02-13T23:34:17.710Z,68.09
2023-02-13T23:36:45.572Z,68.26
2023-02-13T23:39:13.164Z,68.13
2023-02-13T23:41:40.905Z,68.31
2023-02-13T23:44:08.668Z,68.39
2023-02-13T23:46:36.239Z,68.44
2023-02-13T23:49:05.524Z,68.45
2023-02-13T23:51:34.322Z,68.84
2023-02-13T23:54:01.861Z,68.66
2023-02-13T23:56:29.315Z,69.10
2023-02-13T23:58:57.266Z,69.01
